sensor_id;sensor_type;location;lat;lon;timestamp;temperature;humidity
1283;DHT22;634;48.810;9.148;2022-09-09T00:00:48;19.70;69.50
1283;DHT22;634;48.810;9.148;2022-09-09T00:03:26;19.40;70.00
1283;DHT22;634;48.810;9.148;2022-09-09T00:06:00;19.40;70.50
1283;DHT22;634;48.810;9.148;2022-09-09T00:08:43;19.50;69.70
1283;DHT22;634;48.810;9.148;2022-09-09T00:11:18;19.40;67.70
1283;DHT22;634;48.810;9.148;2022-09-09T00:13:51;19.40;67.20
1283;DHT22;634;48.810;9.148;2022-09-09T00:16:23;19.50;67.30
1283;DHT22;634;48.810;9.148;2022-09-09T00:19:00;19.50;67.00
1283;DHT22;634;48.810;9.148;2022-09-09T00:21:33;19.60;67.20
1283;DHT22;634;48.810;9.148;2022-09-09T00:24:10;19.70;67.10
1283;DHT22;634;48.810;9.148;2022-09-09T00:26:43;19.70;66.50
1283;DHT22;634;48.810;9.148;2022-09-09T00:29:20;19.70;66.60
1283;DHT22;634;48.810;9.148;2022-09-09T00:31:54;19.70;65.50
1283;DHT22;634;48.810;9.148;2022-09-09T00:34:26;19.60;66.20
1283;DHT22;634;48.810;9.148;2022-09-09T00:36:56;19.60;66.00
1283;DHT22;634;48.810;9.148;2022-09-09T00:39:34;19.70;65.30
1283;DHT22;634;48.810;9.148;2022-09-09T00:42:15;19.80;64.40
1283;DHT22;634;48.810;9.148;2022-09-09T00:44:53;19.80;64.80
1283;DHT22;634;48.810;9.148;2022-09-09T00:47:43;19.90;64.60
1283;DHT22;634;48.810;9.148;2022-09-09T00:50:31;19.90;63.70
1283;DHT22;634;48.810;9.148;2022-09-09T00:53:12;20.00;64.80
1283;DHT22;634;48.810;9.148;2022-09-09T00:55:50;20.00;63.30
1283;DHT22;634;48.810;9.148;2022-09-09T00:58:22;19.90;63.00
1283;DHT22;634;48.810;9.148;2022-09-09T01:00:59;19.90;63.30
1283;DHT22;634;48.810;9.148;2022-09-09T01:03:34;20.00;63.00
1283;DHT22;634;48.810;9.148;2022-09-09T01:06:18;20.00;62.90
1283;DHT22;634;48.810;9.148;2022-09-09T01:09:05;20.00;62.40
1283;DHT22;634;48.810;9.148;2022-09-09T01:11:49;20.10;62.50
1283;DHT22;634;48.810;9.148;2022-09-09T01:14:29;20.00;62.30
1283;DHT22;634;48.810;9.148;2022-09-09T01:17:03;20.00;61.90
1283;DHT22;634;48.810;9.148;2022-09-09T01:19:50;19.90;62.40
1283;DHT22;634;48.810;9.148;2022-09-09T01:22:28;19.80;62.70
1283;DHT22;634;48.810;9.148;2022-09-09T01:25:28;19.80;62.80
1283;DHT22;634;48.810;9.148;2022-09-09T01:28:19;19.90;62.80
1283;DHT22;634;48.810;9.148;2022-09-09T01:30:51;19.90;62.70
1283;DHT22;634;48.810;9.148;2022-09-09T01:33:27;19.90;62.30
1283;DHT22;634;48.810;9.148;2022-09-09T01:36:00;19.90;62.40
1283;DHT22;634;48.810;9.148;2022-09-09T01:38:40;20.00;62.80
1283;DHT22;634;48.810;9.148;2022-09-09T01:41:09;20.00;62.80
1283;DHT22;634;48.810;9.148;2022-09-09T01:43:54;20.00;62.60
1283;DHT22;634;48.810;9.148;2022-09-09T01:46:25;20.00;63.00
1283;DHT22;634;48.810;9.148;2022-09-09T01:48:56;20.00;61.90
1283;DHT22;634;48.810;9.148;2022-09-09T01:51:27;20.00;62.10
1283;DHT22;634;48.810;9.148;2022-09-09T01:54:16;20.00;62.50
1283;DHT22;634;48.810;9.148;2022-09-09T01:56:54;20.00;62.60
1283;DHT22;634;48.810;9.148;2022-09-09T01:59:48;19.90;62.60
1283;DHT22;634;48.810;9.148;2022-09-09T02:02:27;20.00;62.60
1283;DHT22;634;48.810;9.148;2022-09-09T02:05:17;19.80;63.20
1283;DHT22;634;48.810;9.148;2022-09-09T02:07:50;19.80;63.40
1283;DHT22;634;48.810;9.148;2022-09-09T02:10:42;19.80;63.50
1283;DHT22;634;48.810;9.148;2022-09-09T02:13:25;19.60;64.40
1283;DHT22;634;48.810;9.148;2022-09-09T02:16:01;19.40;64.60
1283;DHT22;634;48.810;9.148;2022-09-09T02:18:35;19.50;65.00
1283;DHT22;634;48.810;9.148;2022-09-09T02:21:09;19.40;65.10
1283;DHT22;634;48.810;9.148;2022-09-09T02:23:41;19.50;65.10
1283;DHT22;634;48.810;9.148;2022-09-09T02:26:14;19.50;65.00
1283;DHT22;634;48.810;9.148;2022-09-09T02:28:55;19.70;64.50
1283;DHT22;634;48.810;9.148;2022-09-09T02:31:28;19.70;64.80
1283;DHT22;634;48.810;9.148;2022-09-09T02:34:03;19.70;64.40
1283;DHT22;634;48.810;9.148;2022-09-09T02:36:35;19.70;64.70
1283;DHT22;634;48.810;9.148;2022-09-09T02:39:07;19.70;65.20
1283;DHT22;634;48.810;9.148;2022-09-09T02:41:39;19.70;65.80
1283;DHT22;634;48.810;9.148;2022-09-09T02:44:10;19.50;66.40
1283;DHT22;634;48.810;9.148;2022-09-09T02:47:00;19.50;66.70
1283;DHT22;634;48.810;9.148;2022-09-09T02:49:46;19.50;66.90
1283;DHT22;634;48.810;9.148;2022-09-09T02:52:23;19.50;66.40
1283;DHT22;634;48.810;9.148;2022-09-09T02:54:59;19.50;66.80
1283;DHT22;634;48.810;9.148;2022-09-09T02:57:36;19.50;67.00
1283;DHT22;634;48.810;9.148;2022-09-09T03:00:11;19.50;67.10
1283;DHT22;634;48.810;9.148;2022-09-09T03:02:44;19.50;67.50
1283;DHT22;634;48.810;9.148;2022-09-09T03:05:13;19.50;67.30
1283;DHT22;634;48.810;9.148;2022-09-09T03:07:43;19.50;67.60
1283;DHT22;634;48.810;9.148;2022-09-09T03:10:12;19.50;68.00
1283;DHT22;634;48.810;9.148;2022-09-09T03:12:42;19.50;67.40
1283;DHT22;634;48.810;9.148;2022-09-09T03:15:12;19.40;67.50
1283;DHT22;634;48.810;9.148;2022-09-09T03:17:44;19.30;68.00
1283;DHT22;634;48.810;9.148;2022-09-09T03:20:14;19.00;68.60
1283;DHT22;634;48.810;9.148;2022-09-09T03:22:44;18.80;69.70
1283;DHT22;634;48.810;9.148;2022-09-09T03:25:14;18.80;70.10
1283;DHT22;634;48.810;9.148;2022-09-09T03:27:44;18.70;70.60
1283;DHT22;634;48.810;9.148;2022-09-09T03:30:14;18.70;70.80
1283;DHT22;634;48.810;9.148;2022-09-09T03:32:46;18.80;70.30
1283;DHT22;634;48.810;9.148;2022-09-09T03:35:16;18.80;70.70
1283;DHT22;634;48.810;9.148;2022-09-09T03:37:46;18.80;70.70
1283;DHT22;634;48.810;9.148;2022-09-09T03:40:16;18.80;70.10
1283;DHT22;634;48.810;9.148;2022-09-09T03:42:46;18.70;70.80
1283;DHT22;634;48.810;9.148;2022-09-09T03:45:17;18.70;70.60
1283;DHT22;634;48.810;9.148;2022-09-09T03:47:52;18.70;70.20
1283;DHT22;634;48.810;9.148;2022-09-09T03:50:23;18.70;69.40
1283;DHT22;634;48.810;9.148;2022-09-09T03:52:53;18.80;69.20
1283;DHT22;634;48.810;9.148;2022-09-09T03:55:23;18.90;69.20
1283;DHT22;634;48.810;9.148;2022-09-09T03:57:52;19.00;68.80
1283;DHT22;634;48.810;9.148;2022-09-09T04:00:22;18.90;68.90
1283;DHT22;634;48.810;9.148;2022-09-09T04:02:57;18.90;69.60
1283;DHT22;634;48.810;9.148;2022-09-09T04:05:27;18.90;68.90
1283;DHT22;634;48.810;9.148;2022-09-09T04:07:56;18.90;69.20
1283;DHT22;634;48.810;9.148;2022-09-09T04:10:26;19.00;69.00
1283;DHT22;634;48.810;9.148;2022-09-09T04:12:57;19.00;69.00
1283;DHT22;634;48.810;9.148;2022-09-09T04:15:26;19.00;69.10
1283;DHT22;634;48.810;9.148;2022-09-09T04:17:59;18.90;69.90
1283;DHT22;634;48.810;9.148;2022-09-09T04:20:28;18.60;71.30
1283;DHT22;634;48.810;9.148;2022-09-09T04:22:58;18.40;72.60
1283;DHT22;634;48.810;9.148;2022-09-09T04:25:27;18.00;74.10
1283;DHT22;634;48.810;9.148;2022-09-09T04:27:58;17.80;75.40
1283;DHT22;634;48.810;9.148;2022-09-09T04:30:28;17.70;76.60
1283;DHT22;634;48.810;9.148;2022-09-09T04:33:00;17.70;77.50
1283;DHT22;634;48.810;9.148;2022-09-09T04:35:30;17.80;77.20
1283;DHT22;634;48.810;9.148;2022-09-09T04:37:59;17.80;77.00
1283;DHT22;634;48.810;9.148;2022-09-09T04:40:31;17.90;77.30
1283;DHT22;634;48.810;9.148;2022-09-09T04:43:02;17.90;76.60
1283;DHT22;634;48.810;9.148;2022-09-09T04:45:34;18.00;76.50
1283;DHT22;634;48.810;9.148;2022-09-09T04:48:06;18.00;76.10
1283;DHT22;634;48.810;9.148;2022-09-09T04:50:36;18.00;75.90
1283;DHT22;634;48.810;9.148;2022-09-09T04:53:07;18.00;76.20
1283;DHT22;634;48.810;9.148;2022-09-09T04:55:38;18.20;75.90
1283;DHT22;634;48.810;9.148;2022-09-09T04:58:10;18.40;75.00
1283;DHT22;634;48.810;9.148;2022-09-09T05:00:40;18.60;74.10
1283;DHT22;634;48.810;9.148;2022-09-09T05:03:13;18.70;72.90
1283;DHT22;634;48.810;9.148;2022-09-09T05:05:43;18.70;73.10
1283;DHT22;634;48.810;9.148;2022-09-09T05:08:12;18.70;73.20
1283;DHT22;634;48.810;9.148;2022-09-09T05:10:42;18.60;73.30
1283;DHT22;634;48.810;9.148;2022-09-09T05:13:12;18.50;74.20
1283;DHT22;634;48.810;9.148;2022-09-09T05:15:42;18.60;74.60
1283;DHT22;634;48.810;9.148;2022-09-09T05:18:15;18.70;73.30
1283;DHT22;634;48.810;9.148;2022-09-09T05:20:44;18.80;72.80
1283;DHT22;634;48.810;9.148;2022-09-09T05:23:14;18.90;72.40
1283;DHT22;634;48.810;9.148;2022-09-09T05:25:43;19.10;72.10
1283;DHT22;634;48.810;9.148;2022-09-09T05:28:14;19.20;71.50
1283;DHT22;634;48.810;9.148;2022-09-09T05:30:43;19.30;70.50
1283;DHT22;634;48.810;9.148;2022-09-09T05:33:16;19.20;71.00
1283;DHT22;634;48.810;9.148;2022-09-09T05:35:45;19.30;70.30
1283;DHT22;634;48.810;9.148;2022-09-09T05:38:15;19.40;70.30
1283;DHT22;634;48.810;9.148;2022-09-09T05:40:47;19.50;70.30
1283;DHT22;634;48.810;9.148;2022-09-09T05:43:18;19.40;70.60
1283;DHT22;634;48.810;9.148;2022-09-09T05:45:59;19.40;70.80
1283;DHT22;634;48.810;9.148;2022-09-09T05:48:34;19.50;70.70
1283;DHT22;634;48.810;9.148;2022-09-09T05:51:09;19.40;71.20
1283;DHT22;634;48.810;9.148;2022-09-09T05:53:39;19.40;71.10
1283;DHT22;634;48.810;9.148;2022-09-09T05:56:11;19.30;71.60
1283;DHT22;634;48.810;9.148;2022-09-09T05:58:43;19.40;71.30
1283;DHT22;634;48.810;9.148;2022-09-09T06:01:16;19.40;70.80
1283;DHT22;634;48.810;9.148;2022-09-09T06:03:50;19.20;71.80
1283;DHT22;634;48.810;9.148;2022-09-09T06:06:22;19.40;71.40
1283;DHT22;634;48.810;9.148;2022-09-09T06:08:55;19.60;70.80
1283;DHT22;634;48.810;9.148;2022-09-09T06:11:31;19.70;69.90
1283;DHT22;634;48.810;9.148;2022-09-09T06:14:03;19.60;70.40
1283;DHT22;634;48.810;9.148;2022-09-09T06:16:34;19.70;70.30
1283;DHT22;634;48.810;9.148;2022-09-09T06:19:09;19.80;70.50
1283;DHT22;634;48.810;9.148;2022-09-09T06:21:39;19.80;71.20
1283;DHT22;634;48.810;9.148;2022-09-09T06:24:11;19.60;71.20
1283;DHT22;634;48.810;9.148;2022-09-09T06:26:44;19.70;71.10
1283;DHT22;634;48.810;9.148;2022-09-09T06:29:19;19.80;70.90
1283;DHT22;634;48.810;9.148;2022-09-09T06:31:48;19.80;71.00
1283;DHT22;634;48.810;9.148;2022-09-09T06:34:24;19.60;71.50
1283;DHT22;634;48.810;9.148;2022-09-09T06:36:56;19.40;73.10
1283;DHT22;634;48.810;9.148;2022-09-09T06:39:31;19.40;73.40
1283;DHT22;634;48.810;9.148;2022-09-09T06:42:01;19.40;73.60
1283;DHT22;634;48.810;9.148;2022-09-09T06:44:51;19.40;74.00
1283;DHT22;634;48.810;9.148;2022-09-09T06:47:29;19.50;73.20
1283;DHT22;634;48.810;9.148;2022-09-09T06:50:03;19.50;73.20
1283;DHT22;634;48.810;9.148;2022-09-09T06:52:35;19.70;72.90
1283;DHT22;634;48.810;9.148;2022-09-09T06:55:06;19.90;72.40
1283;DHT22;634;48.810;9.148;2022-09-09T06:57:36;20.00;72.10
1283;DHT22;634;48.810;9.148;2022-09-09T07:00:13;20.20;71.30
1283;DHT22;634;48.810;9.148;2022-09-09T07:02:43;20.30;70.50
1283;DHT22;634;48.810;9.148;2022-09-09T07:05:16;20.40;70.20
1283;DHT22;634;48.810;9.148;2022-09-09T07:07:47;20.50;71.20
1283;DHT22;634;48.810;9.148;2022-09-09T07:10:19;20.60;70.00
1283;DHT22;634;48.810;9.148;2022-09-09T07:12:50;20.60;69.50
1283;DHT22;634;48.810;9.148;2022-09-09T07:15:24;20.60;69.60
1283;DHT22;634;48.810;9.148;2022-09-09T07:17:54;20.60;70.20
1283;DHT22;634;48.810;9.148;2022-09-09T07:20:26;20.70;70.10
1283;DHT22;634;48.810;9.148;2022-09-09T07:22:58;20.70;69.40
1283;DHT22;634;48.810;9.148;2022-09-09T07:25:27;20.60;69.70
1283;DHT22;634;48.810;9.148;2022-09-09T07:27:57;20.70;70.50
1283;DHT22;634;48.810;9.148;2022-09-09T07:30:27;20.80;68.80
1283;DHT22;634;48.810;9.148;2022-09-09T07:32:58;20.80;69.20
1283;DHT22;634;48.810;9.148;2022-09-09T07:35:33;20.80;68.90
1283;DHT22;634;48.810;9.148;2022-09-09T07:38:04;20.90;69.00
1283;DHT22;634;48.810;9.148;2022-09-09T07:40:34;21.00;68.00
1283;DHT22;634;48.810;9.148;2022-09-09T07:43:04;21.10;67.90
1283;DHT22;634;48.810;9.148;2022-09-09T07:45:34;21.30;67.40
1283;DHT22;634;48.810;9.148;2022-09-09T07:48:04;21.40;66.70
1283;DHT22;634;48.810;9.148;2022-09-09T07:50:37;21.70;65.80
1283;DHT22;634;48.810;9.148;2022-09-09T07:53:06;21.90;64.80
1283;DHT22;634;48.810;9.148;2022-09-09T07:55:36;21.90;64.70
1283;DHT22;634;48.810;9.148;2022-09-09T07:58:05;21.90;64.40
1283;DHT22;634;48.810;9.148;2022-09-09T08:00:37;22.00;64.80
1283;DHT22;634;48.810;9.148;2022-09-09T08:03:10;22.10;64.40
1283;DHT22;634;48.810;9.148;2022-09-09T08:05:42;22.10;64.20
1283;DHT22;634;48.810;9.148;2022-09-09T08:08:12;22.20;63.90
1283;DHT22;634;48.810;9.148;2022-09-09T08:10:43;22.40;63.20
1283;DHT22;634;48.810;9.148;2022-09-09T08:13:12;22.40;62.40
1283;DHT22;634;48.810;9.148;2022-09-09T08:15:43;22.50;62.60
1283;DHT22;634;48.810;9.148;2022-09-09T08:18:13;22.50;61.60
1283;DHT22;634;48.810;9.148;2022-09-09T08:20:47;22.50;60.80
1283;DHT22;634;48.810;9.148;2022-09-09T08:23:16;22.40;61.10
1283;DHT22;634;48.810;9.148;2022-09-09T08:25:46;22.60;61.70
1283;DHT22;634;48.810;9.148;2022-09-09T08:28:16;22.90;61.30
1283;DHT22;634;48.810;9.148;2022-09-09T08:30:46;23.30;59.90
1283;DHT22;634;48.810;9.148;2022-09-09T08:33:16;23.80;59.00
1283;DHT22;634;48.810;9.148;2022-09-09T08:35:52;24.30;58.60
1283;DHT22;634;48.810;9.148;2022-09-09T08:38:23;24.70;57.60
1283;DHT22;634;48.810;9.148;2022-09-09T08:40:59;24.80;56.90
1283;DHT22;634;48.810;9.148;2022-09-09T08:43:33;25.30;56.10
1283;DHT22;634;48.810;9.148;2022-09-09T08:46:09;25.50;54.70
1283;DHT22;634;48.810;9.148;2022-09-09T08:48:49;25.80;53.80
1283;DHT22;634;48.810;9.148;2022-09-09T08:51:26;25.90;52.90
1283;DHT22;634;48.810;9.148;2022-09-09T08:53:58;26.20;52.30
1283;DHT22;634;48.810;9.148;2022-09-09T08:56:31;26.60;51.90
1283;DHT22;634;48.810;9.148;2022-09-09T08:59:03;26.90;51.40
1283;DHT22;634;48.810;9.148;2022-09-09T09:01:50;27.30;50.70
1283;DHT22;634;48.810;9.148;2022-09-09T09:05:09;27.30;48.80
1283;DHT22;634;48.810;9.148;2022-09-09T09:07:59;27.30;48.40
1283;DHT22;634;48.810;9.148;2022-09-09T09:10:41;27.30;47.80
1283;DHT22;634;48.810;9.148;2022-09-09T09:13:19;26.90;47.50
1283;DHT22;634;48.810;9.148;2022-09-09T09:15:55;26.00;48.80
1283;DHT22;634;48.810;9.148;2022-09-09T09:18:27;25.50;49.70
1283;DHT22;634;48.810;9.148;2022-09-09T09:21:03;25.00;50.40
1283;DHT22;634;48.810;9.148;2022-09-09T09:23:45;24.70;51.60
1283;DHT22;634;48.810;9.148;2022-09-09T09:26:19;24.40;52.90
1283;DHT22;634;48.810;9.148;2022-09-09T09:28:54;24.00;56.90
1283;DHT22;634;48.810;9.148;2022-09-09T09:31:25;23.30;59.70
1283;DHT22;634;48.810;9.148;2022-09-09T09:33:56;23.00;59.10
1283;DHT22;634;48.810;9.148;2022-09-09T09:36:34;22.80;64.80
1283;DHT22;634;48.810;9.148;2022-09-09T09:39:07;22.00;74.60
1283;DHT22;634;48.810;9.148;2022-09-09T09:41:42;21.60;73.30
1283;DHT22;634;48.810;9.148;2022-09-09T09:44:25;21.70;78.10
1283;DHT22;634;48.810;9.148;2022-09-09T09:47:06;22.70;70.90
1283;DHT22;634;48.810;9.148;2022-09-09T09:49:51;24.30;66.10
1283;DHT22;634;48.810;9.148;2022-09-09T09:52:25;25.50;58.90
1283;DHT22;634;48.810;9.148;2022-09-09T09:54:58;26.40;53.80
1283;DHT22;634;48.810;9.148;2022-09-09T09:57:30;27.20;53.80
1283;DHT22;634;48.810;9.148;2022-09-09T10:00:13;27.50;52.00
1283;DHT22;634;48.810;9.148;2022-09-09T10:02:49;28.10;50.00
1283;DHT22;634;48.810;9.148;2022-09-09T10:05:25;28.40;49.10
1283;DHT22;634;48.810;9.148;2022-09-09T10:08:04;28.70;48.50
1283;DHT22;634;48.810;9.148;2022-09-09T10:10:51;29.10;46.50
1283;DHT22;634;48.810;9.148;2022-09-09T10:13:27;29.60;46.10
1283;DHT22;634;48.810;9.148;2022-09-09T10:16:13;29.80;45.70
1283;DHT22;634;48.810;9.148;2022-09-09T10:18:58;29.70;45.80
1283;DHT22;634;48.810;9.148;2022-09-09T10:27:36;30.30;44.40
1283;DHT22;634;48.810;9.148;2022-09-09T10:30:14;30.00;45.00
1283;DHT22;634;48.810;9.148;2022-09-09T10:32:49;30.10;45.70
1283;DHT22;634;48.810;9.148;2022-09-09T10:35:27;30.50;45.10
1283;DHT22;634;48.810;9.148;2022-09-09T10:38:15;30.70;44.90
1283;DHT22;634;48.810;9.148;2022-09-09T10:40:59;30.70;44.10
1283;DHT22;634;48.810;9.148;2022-09-09T10:43:44;30.60;43.80
1283;DHT22;634;48.810;9.148;2022-09-09T10:46:23;30.20;44.40
1283;DHT22;634;48.810;9.148;2022-09-09T10:49:07;28.80;46.80
1283;DHT22;634;48.810;9.148;2022-09-09T10:51:44;28.10;48.40
1283;DHT22;634;48.810;9.148;2022-09-09T10:54:28;27.50;50.10
1283;DHT22;634;48.810;9.148;2022-09-09T10:57:03;27.30;50.10
1283;DHT22;634;48.810;9.148;2022-09-09T10:59:40;27.20;50.40
1283;DHT22;634;48.810;9.148;2022-09-09T11:02:15;27.10;50.90
1283;DHT22;634;48.810;9.148;2022-09-09T11:04:51;27.60;50.20
1283;DHT22;634;48.810;9.148;2022-09-09T11:07:28;28.40;49.20
1283;DHT22;634;48.810;9.148;2022-09-09T11:10:02;28.60;48.00
1283;DHT22;634;48.810;9.148;2022-09-09T11:12:35;28.30;48.30
1283;DHT22;634;48.810;9.148;2022-09-09T11:15:14;27.60;49.60
1283;DHT22;634;48.810;9.148;2022-09-09T11:17:48;27.50;50.20
1283;DHT22;634;48.810;9.148;2022-09-09T11:20:19;27.30;49.80
1283;DHT22;634;48.810;9.148;2022-09-09T11:22:52;27.30;48.70
1283;DHT22;634;48.810;9.148;2022-09-09T11:25:26;27.30;47.90
1283;DHT22;634;48.810;9.148;2022-09-09T11:34:26;25.70;46.40
1283;DHT22;634;48.810;9.148;2022-09-09T11:37:14;25.50;47.30
1283;DHT22;634;48.810;9.148;2022-09-09T11:40:09;25.20;47.90
1283;DHT22;634;48.810;9.148;2022-09-09T11:42:43;25.10;48.40
1283;DHT22;634;48.810;9.148;2022-09-09T11:45:23;24.70;49.50
1283;DHT22;634;48.810;9.148;2022-09-09T11:47:58;24.40;49.50
1283;DHT22;634;48.810;9.148;2022-09-09T11:50:31;24.30;50.80
1283;DHT22;634;48.810;9.148;2022-09-09T11:53:15;24.30;50.20
1283;DHT22;634;48.810;9.148;2022-09-09T11:55:47;24.00;50.30
1283;DHT22;634;48.810;9.148;2022-09-09T11:58:17;24.10;50.60
1283;DHT22;634;48.810;9.148;2022-09-09T12:00:50;24.10;50.40
1283;DHT22;634;48.810;9.148;2022-09-09T12:03:40;24.00;50.90
1283;DHT22;634;48.810;9.148;2022-09-09T12:06:14;24.40;50.00
1283;DHT22;634;48.810;9.148;2022-09-09T12:08:51;25.10;49.10
1283;DHT22;634;48.810;9.148;2022-09-09T12:11:26;26.00;47.50
1283;DHT22;634;48.810;9.148;2022-09-09T12:13:58;26.10;46.00
1283;DHT22;634;48.810;9.148;2022-09-09T12:16:31;26.00;46.20
1283;DHT22;634;48.810;9.148;2022-09-09T12:19:16;26.00;46.40
1283;DHT22;634;48.810;9.148;2022-09-09T12:21:53;26.00;46.40
1283;DHT22;634;48.810;9.148;2022-09-09T12:24:32;26.30;47.00
1283;DHT22;634;48.810;9.148;2022-09-09T12:27:11;27.30;45.40
1283;DHT22;634;48.810;9.148;2022-09-09T12:29:51;28.00;44.00
1283;DHT22;634;48.810;9.148;2022-09-09T12:32:27;28.70;42.20
1283;DHT22;634;48.810;9.148;2022-09-09T12:35:02;29.30;40.50
1283;DHT22;634;48.810;9.148;2022-09-09T12:37:36;29.70;38.80
1283;DHT22;634;48.810;9.148;2022-09-09T12:40:19;30.10;37.90
1283;DHT22;634;48.810;9.148;2022-09-09T12:42:49;30.00;37.70
1283;DHT22;634;48.810;9.148;2022-09-09T12:45:20;30.00;37.80
1283;DHT22;634;48.810;9.148;2022-09-09T12:47:52;30.10;37.10
1283;DHT22;634;48.810;9.148;2022-09-09T12:50:28;29.30;38.50
1283;DHT22;634;48.810;9.148;2022-09-09T12:53:01;28.40;40.20
1283;DHT22;634;48.810;9.148;2022-09-09T12:55:32;27.80;41.50
1283;DHT22;634;48.810;9.148;2022-09-09T12:58:05;27.40;42.50
1283;DHT22;634;48.810;9.148;2022-09-09T13:00:35;27.20;43.50
1283;DHT22;634;48.810;9.148;2022-09-09T13:03:17;26.90;44.00
1283;DHT22;634;48.810;9.148;2022-09-09T13:05:50;27.00;44.10
1283;DHT22;634;48.810;9.148;2022-09-09T13:08:20;27.40;43.50
1283;DHT22;634;48.810;9.148;2022-09-09T13:10:55;27.50;43.40
1283;DHT22;634;48.810;9.148;2022-09-09T13:13:27;27.30;43.40
1283;DHT22;634;48.810;9.148;2022-09-09T13:16:00;27.20;43.40
1283;DHT22;634;48.810;9.148;2022-09-09T13:18:33;27.10;43.20
1283;DHT22;634;48.810;9.148;2022-09-09T13:21:06;27.10;43.20
1283;DHT22;634;48.810;9.148;2022-09-09T13:23:39;27.10;44.00
1283;DHT22;634;48.810;9.148;2022-09-09T13:26:22;27.30;43.50
1283;DHT22;634;48.810;9.148;2022-09-09T13:28:52;27.30;43.50
1283;DHT22;634;48.810;9.148;2022-09-09T13:31:29;27.60;43.60
1283;DHT22;634;48.810;9.148;2022-09-09T13:33:59;27.60;43.00
1283;DHT22;634;48.810;9.148;2022-09-09T13:36:32;27.60;43.30
1283;DHT22;634;48.810;9.148;2022-09-09T13:39:04;27.80;43.00
1283;DHT22;634;48.810;9.148;2022-09-09T13:41:35;28.10;42.40
1283;DHT22;634;48.810;9.148;2022-09-09T13:44:18;28.30;41.40
1283;DHT22;634;48.810;9.148;2022-09-09T13:47:03;28.30;40.60
1283;DHT22;634;48.810;9.148;2022-09-09T13:49:33;28.00;40.70
1283;DHT22;634;48.810;9.148;2022-09-09T13:52:09;27.50;41.50
1283;DHT22;634;48.810;9.148;2022-09-09T13:54:40;27.00;42.20
1283;DHT22;634;48.810;9.148;2022-09-09T13:57:15;26.20;43.30
1283;DHT22;634;48.810;9.148;2022-09-09T13:59:46;26.10;44.20
1283;DHT22;634;48.810;9.148;2022-09-09T14:02:17;25.80;44.80
1283;DHT22;634;48.810;9.148;2022-09-09T14:04:47;25.60;45.20
1283;DHT22;634;48.810;9.148;2022-09-09T14:07:19;25.50;45.30
1283;DHT22;634;48.810;9.148;2022-09-09T14:09:49;25.60;45.10
1283;DHT22;634;48.810;9.148;2022-09-09T14:12:18;25.60;45.10
1283;DHT22;634;48.810;9.148;2022-09-09T14:14:51;25.70;45.00
1283;DHT22;634;48.810;9.148;2022-09-09T14:17:20;25.80;45.10
1283;DHT22;634;48.810;9.148;2022-09-09T14:19:51;25.70;44.60
1283;DHT22;634;48.810;9.148;2022-09-09T14:22:24;25.60;44.70
1283;DHT22;634;48.810;9.148;2022-09-09T14:24:54;25.30;45.10
1283;DHT22;634;48.810;9.148;2022-09-09T14:27:24;25.30;45.60
1283;DHT22;634;48.810;9.148;2022-09-09T14:29:54;25.50;45.10
1283;DHT22;634;48.810;9.148;2022-09-09T14:32:24;25.50;45.10
1283;DHT22;634;48.810;9.148;2022-09-09T14:34:53;25.60;44.80
1283;DHT22;634;48.810;9.148;2022-09-09T14:37:27;25.60;44.50
1283;DHT22;634;48.810;9.148;2022-09-09T14:39:57;25.60;44.30
1283;DHT22;634;48.810;9.148;2022-09-09T14:42:28;25.50;44.20
1283;DHT22;634;48.810;9.148;2022-09-09T14:44:58;25.30;44.10
1283;DHT22;634;48.810;9.148;2022-09-09T14:47:27;25.10;44.30
1283;DHT22;634;48.810;9.148;2022-09-09T14:49:57;25.00;44.80
1283;DHT22;634;48.810;9.148;2022-09-09T14:52:30;25.10;45.10
1283;DHT22;634;48.810;9.148;2022-09-09T14:55:02;25.10;45.20
1283;DHT22;634;48.810;9.148;2022-09-09T14:57:32;25.10;45.10
1283;DHT22;634;48.810;9.148;2022-09-09T15:00:03;25.10;44.50
1283;DHT22;634;48.810;9.148;2022-09-09T15:02:32;25.10;44.80
1283;DHT22;634;48.810;9.148;2022-09-09T15:05:02;25.00;44.60
1283;DHT22;634;48.810;9.148;2022-09-09T15:07:34;25.10;44.50
1283;DHT22;634;48.810;9.148;2022-09-09T15:10:05;25.00;44.10
1283;DHT22;634;48.810;9.148;2022-09-09T15:12:35;24.90;44.10
1283;DHT22;634;48.810;9.148;2022-09-09T15:15:05;24.60;44.30
1283;DHT22;634;48.810;9.148;2022-09-09T15:17:37;24.50;44.50
1283;DHT22;634;48.810;9.148;2022-09-09T15:20:08;24.60;44.60
1283;DHT22;634;48.810;9.148;2022-09-09T15:22:41;24.60;45.00
1283;DHT22;634;48.810;9.148;2022-09-09T15:25:10;24.60;44.90
1283;DHT22;634;48.810;9.148;2022-09-09T15:27:39;24.70;44.80
1283;DHT22;634;48.810;9.148;2022-09-09T15:30:11;24.70;44.60
1283;DHT22;634;48.810;9.148;2022-09-09T15:32:41;24.70;45.00
1283;DHT22;634;48.810;9.148;2022-09-09T15:35:10;24.70;45.00
1283;DHT22;634;48.810;9.148;2022-09-09T15:37:42;24.70;45.10
1283;DHT22;634;48.810;9.148;2022-09-09T15:40:12;24.70;45.20
1283;DHT22;634;48.810;9.148;2022-09-09T15:42:41;24.70;45.30
1283;DHT22;634;48.810;9.148;2022-09-09T15:45:11;24.70;45.50
1283;DHT22;634;48.810;9.148;2022-09-09T15:47:41;24.60;45.60
1283;DHT22;634;48.810;9.148;2022-09-09T15:50:11;24.50;45.70
1283;DHT22;634;48.810;9.148;2022-09-09T15:52:43;24.50;45.70
1283;DHT22;634;48.810;9.148;2022-09-09T15:55:13;24.50;45.40
1283;DHT22;634;48.810;9.148;2022-09-09T15:57:44;24.50;45.60
1283;DHT22;634;48.810;9.148;2022-09-09T16:00:15;24.30;45.60
1283;DHT22;634;48.810;9.148;2022-09-09T16:02:48;24.20;45.80
1283;DHT22;634;48.810;9.148;2022-09-09T16:05:18;24.20;45.90
1283;DHT22;634;48.810;9.148;2022-09-09T16:07:52;24.20;45.50
1283;DHT22;634;48.810;9.148;2022-09-09T16:10:22;24.20;45.70
1283;DHT22;634;48.810;9.148;2022-09-09T16:12:52;24.30;45.50
1283;DHT22;634;48.810;9.148;2022-09-09T16:15:22;24.20;45.10
1283;DHT22;634;48.810;9.148;2022-09-09T16:17:53;24.20;45.30
1283;DHT22;634;48.810;9.148;2022-09-09T16:20:23;24.20;45.30
1283;DHT22;634;48.810;9.148;2022-09-09T16:22:55;24.10;45.40
1283;DHT22;634;48.810;9.148;2022-09-09T16:25:24;24.00;45.60
1283;DHT22;634;48.810;9.148;2022-09-09T16:27:53;23.90;45.70
1283;DHT22;634;48.810;9.148;2022-09-09T16:30:23;24.00;45.80
1283;DHT22;634;48.810;9.148;2022-09-09T16:32:52;23.90;46.20
1283;DHT22;634;48.810;9.148;2022-09-09T16:35:22;23.80;46.70
1283;DHT22;634;48.810;9.148;2022-09-09T16:37:54;23.90;46.70
1283;DHT22;634;48.810;9.148;2022-09-09T16:40:23;24.10;46.70
1283;DHT22;634;48.810;9.148;2022-09-09T16:42:53;24.00;47.00
1283;DHT22;634;48.810;9.148;2022-09-09T16:45:22;23.70;48.20
1283;DHT22;634;48.810;9.148;2022-09-09T16:47:55;23.40;48.90
1283;DHT22;634;48.810;9.148;2022-09-09T16:50:27;23.30;49.50
1283;DHT22;634;48.810;9.148;2022-09-09T16:52:59;23.20;49.80
1283;DHT22;634;48.810;9.148;2022-09-09T16:55:30;23.10;49.10
1283;DHT22;634;48.810;9.148;2022-09-09T16:58:00;23.00;49.10
1283;DHT22;634;48.810;9.148;2022-09-09T17:00:29;22.80;49.10
1283;DHT22;634;48.810;9.148;2022-09-09T17:03:00;22.70;49.50
1283;DHT22;634;48.810;9.148;2022-09-09T17:05:29;22.80;49.40
1283;DHT22;634;48.810;9.148;2022-09-09T17:08:01;22.70;49.50
1283;DHT22;634;48.810;9.148;2022-09-09T17:10:31;22.70;49.00
1283;DHT22;634;48.810;9.148;2022-09-09T17:13:02;22.60;49.60